Aeroporto :
LOGIN :

Iscrizione | Disclaimer

   EN    FR    IT 

 










Sommario :    VFR   VFR Marginale   IFR   IFR Intensivo   IFR Molto Intensivo
Visibilità : 
Base nubi : 
>= 8 km
>= 3000ft
5 / 8 km
1000 / 3000 ft
1500m / 5 km
500 / 1000 ft
800 / 1500m
200 / 500 ft
< 800m
< 200 ft
Simboli :   Temporali  Nebbia  Neve Forte  Precipitazioni Forti  Vento > 20 kt
SIGMETs :   Varie  Temporali  Ghiacco  Turbolenza  Onda orograficha  Ceneri Vulcaniche






- Altitudine del aeroporto : 1079 ft


ETIK - Illesheim Air Base

ULTIMO METAR :
  • 220156Z AUTO 25014KT 9999 -RA OVC008 01/01 A3039 RMK AO2 SNE06RAB06E12DZB12E31RAB42 SLP311 P0000 T00140014 $

METARs OBSOLETI :
  • 220142Z AUTO 25015KT 9999 -RA OVC008 01/01 A3039 RMK AO2 SNE06RAB06E12DZB12E31RAB42 SLP311 $
  • 220131Z AUTO 25016KT 9999 OVC008 01/01 A3039 RMK AO2 SNE06RAB06E12DZB12E31 SLP311 $
  • 220106Z AUTO 25014KT 9999 -RA OVC007 01/01 A3039 RMK AO2 SNE06RAB06 SLP311 $
  • 220056Z AUTO 25015KT 8000 -SN BR OVC007 01/01 A3039 RMK AO2 SLP311 P0000 T00110011 $
  • 212356Z AUTO 25013KT 8000 -SN BR OVC009 01/01 A3040 RMK AO2 DZB17E33SNB33 SLP314 P0000 60000 T00090008 10015 20008 57014
  • 212333Z AUTO 25014KT 9000 -SN BR OVC009 01/01 A3040 RMK AO2 DZB17E33SNB33 SLP314 $
  • 212317Z AUTO 25016KT 9999 -DZ OVC009 01/01 A3041 RMK AO2 DZB17 SLP317 $

TAF TAF ETIK
Valido dal 21 a 18 ore il 23 a 00 ore UTC


211800Z 2118/2300 27012G18KT 6000 -RASN BKN012 OVC015 640129 QNH3039INS
BECMG 2121/2122 27015G20KT 5000 -RASN BKN008 OVC012 640089 QNH3036INS
BECMG 2207/2208 29012G20KT 5000 -RA BKN005 OVC009 640059 QNH3039INS
BECMG 2212/2213 29010G15KT 6000 BR BKN008 OVC012 640089 QNH3044INS
TEMPO 2215/2220 30012G20KT 3200 -SHRA BKN005 TX03/2215Z TNM00/2205Z LAST NO AMDS AFT 2118 NEXT 2406



MetMap, La meteo Aeronautica in un colpo d'occhio ! - Copyright ORBIFLY Dicembre 2007 - Disclaimer

ORBIFLY MET'MAP TEAM :

Programmazione e sviluppo : Alexandra Zaïnal
Concezione : Baudouin d'Aumeries
Aiuto per la programmazione : Marc-Olivier Méhu
Supporto tecnico e logistico : Manuel Goepfert
Aiuto per la traduzione : Arnaldo La Scala

Contatto : metmap@orbifly.com




FONTI E CREDITI :

   NOAA